This is the latest recevied weather packets stored in our database for station/object KC1DMA. If no packets are shown the sender has not sent any weather packets the latest 10 day(s).
| Time | Temp. | Humidity | Pressure | Rain* | Wind** | Luminosity | Snow |
|---|---|---|---|---|---|---|---|
| 1777607503 | 7.78° C | 76% | 1010.7 hPa | - | - | 0 W/m² | - |
| 1777607199 | 7.78° C | 77% | 1010.7 hPa | - | - | 0 W/m² | - |
| 1777606895 | 7.78° C | 78% | 1010.6 hPa | - | - | 0 W/m² | - |
| 1777606591 | 7.78° C | 78% | 1010.5 hPa | - | - | 0 W/m² | - |
| 1777606286 | 8.33° C | 78% | 1010.4 hPa | - | - | 0 W/m² | - |
| 1777605982 | 8.33° C | 78% | 1010.4 hPa | - | - | 0 W/m² | - |
| 1777605678 | 8.33° C | 80% | 1010.1 hPa | - | - | 0 W/m² | - |
| 1777605377 | 8.33° C | 81% | 1010.5 hPa | - | - | 0 W/m² | - |
| 1777605075 | 8.33° C | 82% | 1010.4 hPa | - | - | 0 W/m² | - |
| 1777604770 | 8.33° C | 83% | 1010.5 hPa | - | - | 0 W/m² | - |
| 1777604468 | 8.33° C | 83% | 1010.3 hPa | - | - | 0 W/m² | - |
| 1777604167 | 8.33° C | 83% | 1010.3 hPa | - | - | 0 W/m² | - |
| 1777603864 | 8.33° C | 83% | 1010.3 hPa | - | - | 0 W/m² | - |
| 1777603560 | 8.33° C | 84% | 1010.3 hPa | - | - | 0 W/m² | - |
| 1777603256 | 8.33° C | 86% | 1010.2 hPa | - | - | 0 W/m² | - |
| 1777602952 | 8.89° C | 87% | 1010.3 hPa | - | - | 0 W/m² | - |
| 1777602648 | 8.33° C | 88% | 1010.1 hPa | - | - | 0 W/m² | - |
| 1777602348 | 8.33° C | 91% | 1010.3 hPa | - | - | 0 W/m² | - |
| 1777602044 | 8.33° C | 94% | 1010.1 hPa | - | - | 0 W/m² | - |
| 1777601744 | 7.78° C | 97% | 1010.1 hPa | - | - | 0 W/m² | - |
| 1777600226 | 8.89° C | 98% | 1010 hPa | - | - | 0 W/m² | - |
| 1777586857 | 12.22° C | 87% | 1008.1 hPa | - | - | 28 W/m² | - |
| 1777586553 | 12.22° C | 87% | 1008 hPa | - | - | 39 W/m² | - |
| 1777586244 | 12.78° C | 85% | 1008.2 hPa | - | - | 73 W/m² | - |
| 1777583816 | 11.67° C | 88% | 1007.8 hPa | - | - | 55 W/m² | - |
* Rain since midnight (hover to see other rain measurements)
** Current wind speed in m/s (hover to see current wind gust speed)